createdAt,value
2019-01-04T00:00:49.754Z,102099.78
2019-01-04T00:05:53.536Z,102117.14
2019-01-04T00:10:57.325Z,102117.14
2019-01-04T00:16:01.096Z,102114.86
2019-01-04T00:21:04.957Z,102114.86
2019-01-04T00:26:08.731Z,102112.50
2019-01-04T00:31:12.503Z,102108.00
2019-01-04T00:36:16.281Z,102108.00
2019-01-04T00:41:20.063Z,102114.72
2019-01-04T00:46:23.850Z,102114.72
2019-01-04T00:51:28.944Z,102112.34
2019-01-04T00:56:57.369Z,102112.34
2019-01-04T01:02:47.835Z,102116.37
2019-01-04T01:08:28.786Z,102126.77
2019-01-04T01:13:48.687Z,102126.77
2019-01-04T01:19:32.382Z,102120.14
2019-01-04T01:25:17.646Z,102120.14
2019-01-04T01:30:59.022Z,102119.38
2019-01-04T01:36:31.477Z,102117.70
2019-01-04T01:42:15.623Z,102111.08
2019-01-04T01:47:28.905Z,102105.71
2019-01-04T01:52:36.568Z,102102.94
2019-01-04T01:57:40.337Z,102120.31
2019-01-04T02:02:44.120Z,102123.78
2019-01-04T02:07:47.893Z,102125.63
2019-01-04T02:12:51.668Z,102125.63
2019-01-04T02:17:55.443Z,102126.39
2019-01-04T02:22:59.225Z,102126.39
2019-01-04T02:28:03.090Z,102117.94
2019-01-04T02:33:06.852Z,102105.20
2019-01-04T02:38:10.631Z,102103.27
2019-01-04T02:43:14.399Z,102103.27
2019-01-04T02:48:18.195Z,102092.28
2019-01-04T02:53:21.973Z,102099.55
2019-01-04T02:58:25.749Z,102095.66
2019-01-04T03:03:29.501Z,102095.66
2019-01-04T03:08:33.355Z,102090.70
2019-01-04T03:13:37.142Z,102090.70
2019-01-04T03:18:40.903Z,102074.59
2019-01-04T03:23:44.665Z,102074.59
2019-01-04T03:28:48.429Z,102077.19
2019-01-04T03:33:52.284Z,102068.43
2019-01-04T03:38:56.111Z,102068.43
2019-01-04T03:43:59.893Z,102060.83
2019-01-04T03:49:03.650Z,102060.83
2019-01-04T03:54:07.434Z,102056.67
2019-01-04T03:59:11.183Z,102046.45
2019-01-04T04:04:14.942Z,102040.20
2019-01-04T04:09:18.703Z,102040.20
2019-01-04T04:14:22.470Z,102024.44
2019-01-04T04:19:26.287Z,102024.44
2019-01-04T04:24:30.046Z,102018.03
2019-01-04T04:29:33.839Z,102022.84
2019-01-04T04:34:37.620Z,102004.39
2019-01-04T04:39:41.378Z,102004.39
2019-01-04T04:44:45.133Z,102004.47
2019-01-04T04:49:48.906Z,101994.59
2019-01-04T04:54:52.704Z,101994.59
2019-01-04T04:59:56.493Z,101979.36
2019-01-04T05:05:00.303Z,101979.36
2019-01-04T05:10:04.444Z,101975.25
2019-01-04T05:15:08.214Z,101975.72
2019-01-04T05:20:11.980Z,101968.20
2019-01-04T05:25:15.746Z,101966.47
2019-01-04T05:30:19.535Z,101967.28
2019-01-04T05:35:23.314Z,101953.39
2019-01-04T05:40:27.108Z,101953.39
2019-01-04T05:45:30.960Z,101982.40
2019-01-04T05:50:34.736Z,101982.40
2019-01-04T05:55:38.527Z,101972.39
2019-01-04T06:00:42.353Z,101964.43
2019-01-04T06:05:46.191Z,101968.06
2019-01-04T06:10:49.972Z,101958.36
2019-01-04T06:15:53.756Z,101958.36
2019-01-04T06:20:57.577Z,101961.91
2019-01-04T06:26:01.373Z,101966.89
2019-01-04T06:31:05.221Z,101963.86
2019-01-04T06:36:08.986Z,101955.08
2019-01-04T06:41:12.839Z,101955.08
2019-01-04T06:46:16.616Z,101964.09
2019-01-04T06:51:20.403Z,101966.98
2019-01-04T06:56:24.170Z,101971.45
2019-01-04T07:01:27.975Z,101971.45
2019-01-04T07:06:31.746Z,101972.48
2019-01-04T07:11:35.515Z,101967.50
2019-01-04T07:16:39.301Z,101958.59
2019-01-04T07:21:43.086Z,101964.95
2019-01-04T07:26:46.837Z,101967.23
2019-01-04T07:31:50.648Z,101963.91
2019-01-04T07:36:54.466Z,101971.17
2019-01-04T07:41:58.246Z,101969.05
2019-01-04T07:47:02.007Z,101969.05
2019-01-04T07:52:05.781Z,101944.44
2019-01-04T07:57:09.546Z,101945.69
2019-01-04T08:02:39.077Z,101949.75
2019-01-04T08:07:42.948Z,101940.75
2019-01-04T08:12:46.707Z,101940.75
2019-01-04T08:17:50.486Z,101931.19
2019-01-04T08:22:54.281Z,101931.19
2019-01-04T08:27:58.122Z,101962.08
2019-01-04T08:33:01.992Z,101962.08
2019-01-04T08:38:05.782Z,101963.39
2019-01-04T08:43:09.588Z,101962.66
2019-01-04T08:48:13.374Z,101962.66
2019-01-04T08:53:17.167Z,101940.47
2019-01-04T08:58:21.028Z,101877.37
2019-01-04T09:03:24.792Z,101877.37
2019-01-04T09:08:28.593Z,101875.59
2019-01-04T09:13:32.356Z,101873.66
2019-01-04T09:18:36.131Z,101862.58
2019-01-04T09:23:39.910Z,101867.00
2019-01-04T09:28:43.724Z,101863.79
2019-01-04T09:33:47.616Z,101861.91
2019-01-04T09:38:52.228Z,101847.69
2019-01-04T09:43:57.289Z,101843.97
2019-01-04T09:49:01.065Z,101851.95
2019-01-04T09:54:04.826Z,101835.47
2019-01-04T09:59:08.638Z,101812.11
2019-01-04T10:04:12.420Z,101812.11
2019-01-04T10:09:16.213Z,101793.96
2019-01-04T10:14:20.568Z,101793.96
2019-01-04T10:19:24.374Z,101773.10
2019-01-04T10:24:28.149Z,101749.84
2019-01-04T10:29:31.925Z,101742.77
2019-01-04T10:34:35.721Z,101723.20
2019-01-04T10:39:39.505Z,101712.27
2019-01-04T10:44:43.284Z,101712.27
2019-01-04T10:49:47.067Z,101692.01
2019-01-04T10:54:50.856Z,101685.30
2019-01-04T10:59:54.647Z,101677.84
2019-01-04T11:04:58.441Z,101667.16
2019-01-04T11:10:02.267Z,101667.16
2019-01-04T11:15:06.357Z,101653.30
2019-01-04T11:20:42.720Z,101641.78
2019-01-04T11:26:06.696Z,101641.78
2019-01-04T11:31:17.889Z,101619.64
2019-01-04T11:36:46.408Z,101599.62
2019-01-04T11:42:07.427Z,101581.22
2019-01-04T11:47:36.318Z,101569.47
2019-01-04T11:52:44.656Z,101569.47
2019-01-04T11:57:48.449Z,101563.19
2019-01-04T12:02:52.283Z,101552.30
2019-01-04T12:07:56.074Z,101554.73
2019-01-04T12:12:59.940Z,101539.45
2019-01-04T12:18:05.825Z,101527.25
2019-01-04T12:23:11.228Z,101527.25
2019-01-04T12:28:15.199Z,101509.44
2019-01-04T12:33:18.980Z,101509.44
2019-01-04T12:38:22.791Z,101494.61
2019-01-04T12:43:26.616Z,101494.52
2019-01-04T12:48:30.387Z,101477.22
2019-01-04T12:53:34.174Z,101460.11
2019-01-04T12:58:37.957Z,101449.92
2019-01-04T13:03:41.776Z,101429.29
2019-01-04T13:08:45.563Z,101422.48
2019-01-04T13:13:49.559Z,101406.30
2019-01-04T13:18:53.439Z,101405.83
2019-01-04T13:23:57.262Z,101388.07
2019-01-04T13:29:01.073Z,101391.52
2019-01-04T13:34:04.915Z,101411.92
2019-01-04T13:39:12.250Z,101428.70
2019-01-04T13:44:16.149Z,101422.75
2019-01-04T13:49:19.956Z,101432.94
2019-01-04T13:54:23.747Z,101445.33
2019-01-04T13:59:27.662Z,101447.80
2019-01-04T14:04:31.495Z,101447.80
2019-01-04T14:09:35.312Z,101444.86
2019-01-04T14:14:39.112Z,101444.86
2019-01-04T14:19:43.166Z,101436.77
2019-01-04T14:24:47.000Z,101436.77
2019-01-04T14:29:50.811Z,101439.36
2019-01-04T14:34:54.645Z,101412.53
2019-01-04T14:39:58.469Z,101401.98
2019-01-04T14:45:02.410Z,101408.78
2019-01-04T14:50:08.280Z,101408.78
2019-01-04T14:55:12.172Z,101385.41
2019-01-04T15:00:16.009Z,101386.67
2019-01-04T15:05:22.845Z,101382.83
2019-01-04T15:10:26.650Z,101382.83
2019-01-04T15:15:30.432Z,101377.84
2019-01-04T15:20:34.234Z,101372.87
2019-01-04T15:25:38.013Z,101372.87
2019-01-04T15:30:41.822Z,101362.20
2019-01-04T15:35:45.610Z,101362.20
2019-01-04T15:40:49.412Z,101363.17
2019-01-04T15:45:53.208Z,101363.17
2019-01-04T15:50:56.996Z,101337.31
2019-01-04T15:56:00.784Z,101325.89
2019-01-04T16:01:04.573Z,101327.70
2019-01-04T16:06:08.354Z,101327.70
2019-01-04T16:11:12.152Z,101307.95
2019-01-04T16:16:15.933Z,101307.95
2019-01-04T16:21:19.740Z,101293.02
2019-01-04T16:26:23.556Z,101293.02
2019-01-04T16:31:27.338Z,101278.94
2019-01-04T16:36:31.154Z,101278.94
2019-01-04T16:41:34.944Z,101276.43
2019-01-04T16:46:38.755Z,101290.03
2019-01-04T16:51:42.542Z,101290.03
2019-01-04T16:56:46.325Z,101255.13
2019-01-04T17:01:50.115Z,101255.13
2019-01-04T17:06:53.885Z,101263.67
2019-01-04T17:11:57.684Z,101263.67
2019-01-04T17:17:01.499Z,101260.23
2019-01-04T17:22:05.303Z,101260.23
2019-01-04T17:27:09.083Z,101261.84
2019-01-04T17:32:12.878Z,101267.02
2019-01-04T17:37:16.675Z,101270.38
2019-01-04T17:42:20.462Z,101281.12
2019-01-04T17:47:24.252Z,101281.12
2019-01-04T17:52:28.029Z,101286.48
2019-01-04T17:57:31.828Z,101288.20
2019-01-04T18:02:35.619Z,101282.73
2019-01-04T18:07:39.437Z,101290.31
2019-01-04T18:12:43.220Z,101270.11
2019-01-04T18:17:47.032Z,101278.23
2019-01-04T18:22:50.830Z,101267.63
2019-01-04T18:27:54.600Z,101267.63
2019-01-04T18:33:00.494Z,101275.17
2019-01-04T18:38:04.288Z,101265.12
2019-01-04T18:43:08.126Z,101268.56
2019-01-04T18:48:11.933Z,101268.56
2019-01-04T18:53:15.723Z,101276.12
2019-01-04T18:58:19.510Z,101271.63
2019-01-04T19:03:23.302Z,101279.41
2019-01-04T19:08:27.116Z,101272.59
2019-01-04T19:13:32.901Z,101274.89
2019-01-04T19:18:36.719Z,101274.89
2019-01-04T19:23:40.497Z,101276.89
2019-01-04T19:28:44.278Z,101282.74
2019-01-04T19:33:48.083Z,101282.74
2019-01-04T19:38:51.873Z,101283.02
2019-01-04T19:43:56.811Z,101279.30
2019-01-04T19:49:00.593Z,101270.39
2019-01-04T19:54:04.417Z,101270.39
2019-01-04T19:59:08.197Z,101275.92
2019-01-04T20:04:11.985Z,101266.63
2019-01-04T20:10:24.842Z,101263.09
2019-01-04T20:15:59.614Z,101254.93
2019-01-04T20:21:25.680Z,101251.00
2019-01-04T20:26:46.956Z,101251.00
2019-01-04T20:32:09.802Z,101247.84
2019-01-04T20:37:31.633Z,101242.46
2019-01-04T20:42:50.498Z,101243.12
2019-01-04T20:48:13.281Z,101230.28
2019-01-04T20:53:34.316Z,101230.28
2019-01-04T20:58:53.671Z,101220.23
2019-01-04T21:04:28.913Z,101226.15
2019-01-04T21:10:09.809Z,101222.12
2019-01-04T21:15:31.332Z,101203.80
2019-01-04T21:21:00.220Z,101189.80
2019-01-04T21:26:21.909Z,101173.89
2019-01-04T21:31:53.298Z,101169.28
2019-01-04T21:37:31.181Z,101163.91
2019-01-04T21:43:12.228Z,101152.90
2019-01-04T21:48:36.523Z,101151.46
2019-01-04T21:53:57.953Z,101140.73
2019-01-04T21:59:35.351Z,101140.73
2019-01-04T22:04:58.088Z,101132.66
2019-01-04T22:10:19.735Z,101125.30
2019-01-04T22:15:57.920Z,101135.34
2019-01-04T22:21:26.736Z,101135.34
2019-01-04T22:26:48.403Z,101135.82
2019-01-04T22:32:17.443Z,101102.88
2019-01-04T22:37:39.109Z,101106.66
2019-01-04T22:43:01.857Z,101106.66
2019-01-04T22:48:23.650Z,101105.16
2019-01-04T22:53:54.594Z,101088.25
2019-01-04T22:59:17.457Z,101076.35
2019-01-04T23:04:43.094Z,101076.35
2019-01-04T23:10:02.878Z,101067.25
2019-01-04T23:15:24.423Z,101059.67
2019-01-04T23:20:47.203Z,101059.67
2019-01-04T23:26:08.659Z,101042.44
2019-01-04T23:31:31.415Z,101034.28
2019-01-04T23:36:53.942Z,101031.81
2019-01-04T23:42:15.479Z,101034.88
2019-01-04T23:47:50.938Z,101028.91
2019-01-04T23:53:13.066Z,101027.41
2019-01-04T23:58:37.596Z,101011.30
